createdAt,value
2022-09-25T00:01:04.869Z,49.20
2022-09-25T00:03:32.639Z,48.90
2022-09-25T00:06:04.555Z,49.00
2022-09-25T00:08:31.399Z,49.70
2022-09-25T00:10:58.250Z,49.90
2022-09-25T00:13:25.224Z,49.60
2022-09-25T00:15:55.130Z,49.40
2022-09-25T00:18:23.639Z,49.70
2022-09-25T00:21:00.537Z,49.80
2022-09-25T00:23:27.308Z,49.80
2022-09-25T00:25:54.504Z,50.00
2022-09-25T00:28:21.238Z,49.10
2022-09-25T00:30:48.002Z,49.40
2022-09-25T00:33:16.163Z,49.80
2022-09-25T00:35:42.966Z,48.90
2022-09-25T00:38:09.741Z,49.10
2022-09-25T00:40:36.554Z,48.80
2022-09-25T00:43:03.366Z,48.30
2022-09-25T00:45:30.219Z,48.40
2022-09-25T00:48:00.781Z,48.60
2022-09-25T00:50:34.185Z,48.50
2022-09-25T00:53:05.527Z,48.30
2022-09-25T00:55:33.982Z,48.20
2022-09-25T00:58:02.769Z,48.20
2022-09-25T01:00:30.514Z,48.20
2022-09-25T01:02:57.971Z,48.40
2022-09-25T01:05:28.875Z,48.20
2022-09-25T01:08:01.144Z,48.30
2022-09-25T01:10:28.238Z,48.40
2022-09-25T01:12:56.213Z,48.20
2022-09-25T01:15:31.200Z,48.30
2022-09-25T01:18:05.725Z,49.30
2022-09-25T01:20:50.059Z,49.40
2022-09-25T01:23:37.373Z,49.60
2022-09-25T01:26:27.080Z,49.40
2022-09-25T01:29:03.412Z,49.10
2022-09-25T01:31:35.649Z,48.90
2022-09-25T01:34:08.696Z,49.20
2022-09-25T01:36:38.611Z,49.10
2022-09-25T01:39:11.084Z,48.90
2022-09-25T01:41:46.974Z,48.80
2022-09-25T01:44:20.919Z,48.90
2022-09-25T01:46:51.380Z,49.10
2022-09-25T01:49:22.402Z,49.10
2022-09-25T01:51:54.863Z,48.80
2022-09-25T01:54:27.993Z,48.50
2022-09-25T01:56:58.272Z,48.60
2022-09-25T01:59:33.276Z,49.20
2022-09-25T02:02:05.857Z,49.00
2022-09-25T02:04:37.148Z,48.40
2022-09-25T02:07:08.894Z,49.30
2022-09-25T02:09:40.499Z,49.90
2022-09-25T02:12:12.945Z,49.50
2022-09-25T02:14:44.762Z,49.40
2022-09-25T02:17:15.415Z,49.70
2022-09-25T02:19:42.171Z,49.10
2022-09-25T02:22:14.874Z,48.60
2022-09-25T02:24:47.826Z,49.00
2022-09-25T02:27:14.789Z,49.00
2022-09-25T02:29:43.095Z,48.60
2022-09-25T02:32:12.930Z,49.00
2022-09-25T02:34:39.999Z,49.30
2022-09-25T02:37:11.062Z,48.90
2022-09-25T02:39:37.973Z,48.80
2022-09-25T02:42:27.986Z,48.80
2022-09-25T02:45:10.883Z,48.80
2022-09-25T02:47:50.868Z,49.10
2022-09-25T02:50:25.535Z,49.10
2022-09-25T02:53:01.360Z,49.00
2022-09-25T02:55:35.859Z,49.20
2022-09-25T02:58:09.172Z,49.60
2022-09-25T03:00:39.249Z,49.50
2022-09-25T03:03:09.035Z,49.10
2022-09-25T03:05:37.025Z,49.00
2022-09-25T03:08:04.591Z,48.90
2022-09-25T03:10:34.795Z,49.00
2022-09-25T03:13:13.642Z,49.00
2022-09-25T03:15:44.377Z,49.20
2022-09-25T03:18:12.449Z,49.30
2022-09-25T03:20:39.202Z,49.40
2022-09-25T03:23:06.039Z,49.80
2022-09-25T03:25:32.991Z,49.50
2022-09-25T03:27:59.738Z,49.30
2022-09-25T03:30:26.507Z,49.10
2022-09-25T03:32:54.710Z,49.30
2022-09-25T03:35:21.418Z,49.80
2022-09-25T03:37:48.142Z,49.80
2022-09-25T03:40:15.114Z,49.50
2022-09-25T03:42:41.981Z,49.30
2022-09-25T03:45:09.484Z,49.20
2022-09-25T03:47:36.218Z,49.00
2022-09-25T03:50:05.226Z,48.80
2022-09-25T03:52:32.009Z,48.80
2022-09-25T03:54:58.686Z,48.60
2022-09-25T03:57:25.437Z,48.50
2022-09-25T03:59:52.328Z,48.40
2022-09-25T04:02:19.135Z,48.30
2022-09-25T04:04:46.147Z,48.20
2022-09-25T04:07:14.302Z,48.10
2022-09-25T04:09:41.155Z,48.40
2022-09-25T04:12:07.922Z,48.60
2022-09-25T04:14:34.720Z,48.40
2022-09-25T04:17:01.412Z,48.80
2022-09-25T04:19:28.180Z,48.90
2022-09-25T04:21:54.959Z,49.00
2022-09-25T04:24:23.251Z,49.10
2022-09-25T04:26:49.946Z,49.30
2022-09-25T04:29:16.654Z,48.90
2022-09-25T04:31:43.559Z,48.80
2022-09-25T04:34:10.660Z,48.90
2022-09-25T04:36:37.400Z,48.90
2022-09-25T04:39:04.270Z,48.90
2022-09-25T04:41:32.440Z,49.00
2022-09-25T04:43:59.187Z,49.20
2022-09-25T04:46:25.958Z,49.10
2022-09-25T04:48:52.712Z,49.80
2022-09-25T04:51:19.408Z,49.00
2022-09-25T04:53:46.361Z,49.00
2022-09-25T04:56:15.948Z,49.10
2022-09-25T04:58:46.686Z,49.00
2022-09-25T05:01:13.543Z,48.90
2022-09-25T05:03:40.427Z,48.80
2022-09-25T05:06:07.440Z,49.00
2022-09-25T05:08:34.284Z,49.10
2022-09-25T05:11:01.028Z,48.90
2022-09-25T05:13:27.826Z,48.90
2022-09-25T05:15:56.298Z,48.70
2022-09-25T05:18:24.117Z,49.00
2022-09-25T05:20:51.462Z,49.20
2022-09-25T05:23:18.254Z,49.00
2022-09-25T05:25:50.934Z,48.90
2022-09-25T05:28:17.695Z,49.00
2022-09-25T05:30:44.394Z,48.90
2022-09-25T05:33:12.557Z,49.20
2022-09-25T05:35:39.297Z,49.90
2022-09-25T05:38:06.022Z,49.50
2022-09-25T05:40:32.831Z,49.40
2022-09-25T05:42:59.606Z,49.50
2022-09-25T05:45:26.323Z,50.00
2022-09-25T05:48:03.098Z,49.30
2022-09-25T05:50:32.036Z,50.00
2022-09-25T05:52:59.397Z,50.20
2022-09-25T05:55:26.552Z,50.60
2022-09-25T05:57:53.284Z,50.30
2022-09-25T06:00:20.334Z,50.40
2022-09-25T06:02:51.775Z,50.60
2022-09-25T06:05:18.636Z,51.00
2022-09-25T06:07:52.477Z,50.40
2022-09-25T06:10:19.271Z,50.80
2022-09-25T06:12:46.097Z,50.40
2022-09-25T06:15:12.913Z,50.30
2022-09-25T06:17:39.715Z,51.00
2022-09-25T06:20:10.893Z,50.90
2022-09-25T06:22:40.247Z,51.00
2022-09-25T06:25:09.363Z,51.00
2022-09-25T06:27:36.473Z,51.10
2022-09-25T06:30:03.895Z,50.60
2022-09-25T06:32:30.643Z,50.60
2022-09-25T06:34:57.375Z,50.80
2022-09-25T06:37:24.125Z,50.70
2022-09-25T06:39:50.862Z,51.20
2022-09-25T06:42:18.986Z,51.90
2022-09-25T06:44:45.738Z,51.70
2022-09-25T06:47:17.597Z,51.90
2022-09-25T06:49:45.544Z,53.10
2022-09-25T06:52:12.249Z,52.70
2022-09-25T06:54:43.841Z,53.20
2022-09-25T06:57:11.262Z,53.80
2022-09-25T06:59:39.489Z,53.70
2022-09-25T07:02:06.737Z,54.20
2022-09-25T07:04:33.557Z,54.00
2022-09-25T07:07:00.337Z,53.70
2022-09-25T07:09:27.124Z,54.40
2022-09-25T07:11:53.889Z,54.60
2022-09-25T07:14:20.895Z,55.10
2022-09-25T07:16:49.144Z,56.00
2022-09-25T07:19:15.969Z,55.70
2022-09-25T07:21:42.949Z,54.50
2022-09-25T07:24:10.063Z,55.10
2022-09-25T07:26:40.954Z,55.30
2022-09-25T07:29:09.752Z,55.00
2022-09-25T07:31:36.569Z,54.50
2022-09-25T07:34:05.172Z,54.00
2022-09-25T07:36:32.062Z,54.50
2022-09-25T07:38:58.808Z,54.50
2022-09-25T07:41:25.815Z,53.90
2022-09-25T07:44:06.239Z,53.80
2022-09-25T07:46:38.705Z,53.60
2022-09-25T07:49:10.467Z,52.90
2022-09-25T07:51:37.391Z,53.20
2022-09-25T07:54:04.331Z,53.60
2022-09-25T07:56:31.068Z,53.90
2022-09-25T07:58:57.869Z,52.60
2022-09-25T08:01:24.807Z,52.70
2022-09-25T08:03:51.698Z,53.10
2022-09-25T08:06:20.139Z,52.80
2022-09-25T08:08:46.879Z,52.70
2022-09-25T08:11:15.456Z,52.70
2022-09-25T08:13:43.039Z,52.60
2022-09-25T08:16:12.081Z,52.40
2022-09-25T08:18:39.817Z,52.40
2022-09-25T08:21:06.642Z,52.50
2022-09-25T08:23:35.107Z,52.10
2022-09-25T08:26:01.868Z,52.20
2022-09-25T08:28:28.822Z,52.20
2022-09-25T08:30:58.532Z,52.20
2022-09-25T08:33:25.482Z,51.80
2022-09-25T08:35:55.934Z,51.60
2022-09-25T08:38:23.103Z,51.50
2022-09-25T08:40:55.788Z,51.90
2022-09-25T08:43:24.893Z,52.10
2022-09-25T08:45:52.908Z,51.80
2022-09-25T08:48:22.820Z,51.60
2022-09-25T08:50:49.738Z,51.30
2022-09-25T08:55:51.020Z,51.80
2022-09-25T08:58:22.773Z,51.70
2022-09-25T09:00:50.095Z,52.00
2022-09-25T09:03:17.485Z,51.80
2022-09-25T09:05:50.885Z,52.20
2022-09-25T09:08:22.974Z,51.90
2022-09-25T09:10:54.487Z,51.70
2022-09-25T09:13:26.818Z,51.80
2022-09-25T09:16:01.511Z,51.50
2022-09-25T09:18:30.238Z,51.30
2022-09-25T09:20:58.912Z,51.30
2022-09-25T09:23:33.010Z,51.20
2022-09-25T09:26:04.242Z,51.50
2022-09-25T09:29:00.682Z,51.50
2022-09-25T09:31:31.931Z,51.10
2022-09-25T09:34:13.541Z,51.10
2022-09-25T09:36:45.726Z,50.80
2022-09-25T09:39:20.000Z,50.80
2022-09-25T09:41:58.527Z,50.50
2022-09-25T09:44:42.312Z,50.30
2022-09-25T09:47:34.842Z,50.20
2022-09-25T09:50:15.216Z,50.10
2022-09-25T09:52:45.524Z,50.60
2022-09-25T09:55:23.663Z,50.40
2022-09-25T09:57:54.608Z,50.10
2022-09-25T10:00:22.798Z,50.00
2022-09-25T10:02:54.148Z,50.00
2022-09-25T10:05:25.185Z,50.10
2022-09-25T10:07:53.399Z,49.80
2022-09-25T10:10:21.385Z,49.80
2022-09-25T10:12:52.075Z,49.80
2022-09-25T10:15:32.623Z,49.30
2022-09-25T10:18:01.978Z,49.30
2022-09-25T10:20:36.219Z,49.40
2022-09-25T10:23:06.273Z,49.30
2022-09-25T10:25:37.942Z,49.40
2022-09-25T10:28:27.683Z,49.10
2022-09-25T10:30:55.661Z,48.90
2022-09-25T10:33:24.455Z,49.10
2022-09-25T10:35:52.461Z,48.90
2022-09-25T10:38:33.979Z,48.50
2022-09-25T10:41:04.663Z,48.60
2022-09-25T10:43:33.172Z,48.70
2022-09-25T10:46:13.174Z,48.70
2022-09-25T10:48:41.078Z,48.20
2022-09-25T10:51:09.984Z,48.40
2022-09-25T10:53:36.930Z,48.30
2022-09-25T10:56:06.301Z,48.00
2022-09-25T10:58:39.924Z,48.00
2022-09-25T11:01:09.665Z,47.60
2022-09-25T11:03:40.330Z,47.80
2022-09-25T11:06:10.048Z,47.70
2022-09-25T11:08:39.321Z,47.40
2022-09-25T11:11:07.504Z,47.50
2022-09-25T11:13:43.211Z,47.30
2022-09-25T11:16:10.804Z,46.90
2022-09-25T11:18:40.541Z,47.10
2022-09-25T11:21:18.996Z,47.00
2022-09-25T11:23:58.379Z,46.70
2022-09-25T11:26:29.674Z,46.90
2022-09-25T11:29:05.945Z,47.90
2022-09-25T11:31:36.409Z,47.30
2022-09-25T11:34:11.954Z,47.20
2022-09-25T11:36:44.607Z,47.10
2022-09-25T11:39:16.119Z,47.50
2022-09-25T11:41:46.900Z,47.30
2022-09-25T11:44:23.541Z,47.10
2022-09-25T11:46:58.145Z,47.40
2022-09-25T11:49:28.306Z,46.40
2022-09-25T11:52:19.011Z,45.90
2022-09-25T11:55:10.766Z,46.30
2022-09-25T11:57:44.654Z,46.70
2022-09-25T12:00:20.079Z,46.00
2022-09-25T12:03:05.378Z,45.60
2022-09-25T12:05:51.154Z,46.20
2022-09-25T12:08:32.130Z,46.10
2022-09-25T12:11:10.413Z,45.00
2022-09-25T12:13:44.800Z,45.40
2022-09-25T12:16:22.102Z,45.80
2022-09-25T12:19:09.213Z,45.00
2022-09-25T12:21:41.425Z,45.20
2022-09-25T12:24:20.480Z,45.20
2022-09-25T12:26:55.020Z,45.10
2022-09-25T12:29:35.083Z,44.60
2022-09-25T12:32:10.127Z,44.60
2022-09-25T12:34:57.223Z,45.00
2022-09-25T12:37:31.832Z,44.70
2022-09-25T12:40:00.895Z,44.90
2022-09-25T12:42:38.888Z,45.00
2022-09-25T12:45:15.176Z,45.10
2022-09-25T12:47:49.655Z,45.00
2022-09-25T12:50:18.920Z,44.80
2022-09-25T12:52:52.553Z,45.20
2022-09-25T12:55:23.697Z,45.40
2022-09-25T12:58:00.149Z,44.90
2022-09-25T13:00:30.579Z,45.50
2022-09-25T13:03:08.789Z,45.40
2022-09-25T13:05:40.272Z,45.10
2022-09-25T13:08:13.500Z,45.40
2022-09-25T13:10:44.947Z,45.40
2022-09-25T13:13:15.070Z,45.60
2022-09-25T13:15:42.899Z,45.10
2022-09-25T13:18:16.611Z,45.10
2022-09-25T13:20:55.375Z,45.40
2022-09-25T13:23:29.071Z,45.30
2022-09-25T13:25:58.859Z,45.10
2022-09-25T13:28:28.609Z,45.20
2022-09-25T13:31:06.733Z,44.90
2022-09-25T13:33:44.704Z,45.30
2022-09-25T13:36:28.591Z,44.60
2022-09-25T13:38:58.459Z,44.90
2022-09-25T13:41:26.315Z,45.10
2022-09-25T13:44:26.794Z,45.00
2022-09-25T13:47:32.857Z,45.10
2022-09-25T13:50:27.250Z,44.80
2022-09-25T13:53:17.768Z,44.30
2022-09-25T13:56:16.133Z,44.90
2022-09-25T13:59:27.527Z,44.60
2022-09-25T14:02:19.127Z,45.30
2022-09-25T14:04:46.485Z,45.80
2022-09-25T14:07:20.029Z,46.00
2022-09-25T14:09:53.499Z,46.20
2022-09-25T14:12:30.835Z,45.90
2022-09-25T14:15:01.790Z,45.40
2022-09-25T14:17:31.039Z,44.90
2022-09-25T14:20:00.388Z,45.40
2022-09-25T14:22:39.960Z,45.60
2022-09-25T14:25:26.097Z,45.60
2022-09-25T14:27:54.740Z,45.60
2022-09-25T14:30:21.809Z,46.10
2022-09-25T14:33:01.638Z,46.40
2022-09-25T14:35:37.756Z,46.60
2022-09-25T14:38:30.011Z,46.20
2022-09-25T14:41:12.570Z,46.40
2022-09-25T14:44:07.713Z,46.20
2022-09-25T14:46:35.642Z,46.60
2022-09-25T14:49:12.439Z,46.60
2022-09-25T14:51:42.866Z,46.50
2022-09-25T14:54:13.635Z,46.60
2022-09-25T14:56:40.482Z,46.70
2022-09-25T14:59:11.256Z,47.40
2022-09-25T15:01:45.745Z,47.20
2022-09-25T15:04:12.503Z,47.50
2022-09-25T15:06:40.206Z,47.50
2022-09-25T15:09:28.395Z,47.40
2022-09-25T15:11:55.328Z,47.30
2022-09-25T15:14:23.429Z,47.50
2022-09-25T15:16:50.434Z,47.30
2022-09-25T15:19:20.632Z,47.00
2022-09-25T15:21:48.758Z,47.40
2022-09-25T15:24:18.157Z,48.00
2022-09-25T15:26:49.743Z,48.10
2022-09-25T15:29:19.966Z,48.00
2022-09-25T15:31:50.924Z,47.90
2022-09-25T15:34:22.041Z,47.90
2022-09-25T15:36:48.869Z,47.70
2022-09-25T15:39:17.695Z,47.50
2022-09-25T15:41:45.017Z,47.50
2022-09-25T15:44:17.369Z,47.70
2022-09-25T15:46:46.464Z,47.60
2022-09-25T15:49:17.781Z,47.40
2022-09-25T15:51:52.978Z,47.30
2022-09-25T15:54:31.814Z,47.80
2022-09-25T15:57:00.460Z,47.40
2022-09-25T15:59:30.746Z,47.40
2022-09-25T16:01:58.000Z,47.70
2022-09-25T16:04:26.211Z,47.70
2022-09-25T16:06:52.982Z,47.70
2022-09-25T16:09:28.699Z,47.60
2022-09-25T16:12:20.993Z,47.50
2022-09-25T16:14:47.892Z,48.00
2022-09-25T16:17:21.751Z,47.50
2022-09-25T16:20:04.561Z,47.50
2022-09-25T16:22:39.916Z,47.50
2022-09-25T16:25:18.810Z,47.50
2022-09-25T16:27:46.222Z,47.40
2022-09-25T16:30:17.088Z,47.50
2022-09-25T16:32:46.700Z,48.40
2022-09-25T16:35:23.354Z,47.70
2022-09-25T16:37:51.196Z,47.60
2022-09-25T16:40:25.068Z,47.50
2022-09-25T16:42:54.381Z,47.50
2022-09-25T16:45:23.510Z,48.30
2022-09-25T16:47:50.360Z,47.80
2022-09-25T16:50:19.484Z,48.00
2022-09-25T16:52:47.259Z,48.10
2022-09-25T16:55:18.350Z,48.30
2022-09-25T16:57:46.258Z,48.50
2022-09-25T17:00:18.169Z,48.60
2022-09-25T17:02:46.803Z,48.70
2022-09-25T17:05:18.885Z,48.70
2022-09-25T17:07:47.294Z,48.80
2022-09-25T17:10:15.347Z,48.70
2022-09-25T17:12:43.976Z,48.80
2022-09-25T17:15:16.757Z,48.80
2022-09-25T17:17:43.537Z,48.80
2022-09-25T17:20:10.907Z,49.00
2022-09-25T17:22:39.100Z,48.90
2022-09-25T17:25:19.540Z,49.00
2022-09-25T17:27:46.581Z,49.10
2022-09-25T17:30:13.739Z,49.20
2022-09-25T17:32:44.111Z,49.20
2022-09-25T17:35:32.368Z,49.20
2022-09-25T17:38:01.183Z,49.30
2022-09-25T17:40:28.829Z,49.30
2022-09-25T17:42:55.925Z,49.50
2022-09-25T17:45:29.572Z,49.60
2022-09-25T17:47:56.300Z,49.70
2022-09-25T17:50:23.531Z,49.70
2022-09-25T17:52:50.931Z,49.60
2022-09-25T17:55:20.624Z,49.70
2022-09-25T17:57:47.536Z,49.60
2022-09-25T18:00:15.429Z,49.80
2022-09-25T18:02:42.573Z,49.80
2022-09-25T18:05:17.868Z,49.70
2022-09-25T18:07:44.867Z,49.90
2022-09-25T18:10:12.949Z,49.90
2022-09-25T18:12:41.311Z,50.20
2022-09-25T18:15:10.816Z,50.00
2022-09-25T18:17:37.611Z,49.70
2022-09-25T18:20:04.852Z,49.90
2022-09-25T18:22:31.582Z,49.70
2022-09-25T18:24:59.009Z,50.10
2022-09-25T18:27:28.390Z,50.20
2022-09-25T18:29:56.767Z,50.30
2022-09-25T18:32:23.824Z,49.90
2022-09-25T18:34:50.669Z,49.90
2022-09-25T18:37:17.544Z,49.80
2022-09-25T18:39:44.329Z,50.00
2022-09-25T18:42:11.419Z,50.10
2022-09-25T18:44:42.608Z,50.10
2022-09-25T18:47:11.716Z,50.30
2022-09-25T18:49:38.525Z,50.40
2022-09-25T18:52:05.774Z,50.40
2022-09-25T18:54:32.626Z,50.40
2022-09-25T18:56:59.442Z,50.30
2022-09-25T18:59:26.366Z,50.60
2022-09-25T19:01:53.363Z,50.00
2022-09-25T19:04:21.792Z,50.00
2022-09-25T19:06:48.594Z,50.00
2022-09-25T19:09:17.017Z,50.40
2022-09-25T19:11:44.268Z,50.00
2022-09-25T19:14:11.139Z,49.90
2022-09-25T19:16:38.677Z,50.10
2022-09-25T19:19:05.809Z,49.90
2022-09-25T19:21:34.207Z,49.70
2022-09-25T19:24:01.479Z,49.70
2022-09-25T19:26:28.279Z,49.80
2022-09-25T19:28:55.416Z,49.50
2022-09-25T19:31:24.351Z,49.80
2022-09-25T19:33:52.203Z,49.70
2022-09-25T19:36:20.648Z,49.60
2022-09-25T19:38:48.856Z,49.80
2022-09-25T19:41:18.329Z,49.80
2022-09-25T19:43:45.666Z,49.60
2022-09-25T19:46:13.937Z,49.50
2022-09-25T19:48:40.809Z,49.60
2022-09-25T19:51:08.499Z,49.70
2022-09-25T19:53:36.526Z,49.70
2022-09-25T19:56:05.128Z,49.80
2022-09-25T19:58:32.530Z,49.70
2022-09-25T20:00:59.251Z,49.50
2022-09-25T20:03:26.046Z,49.30
2022-09-25T20:05:52.807Z,49.40
2022-09-25T20:08:19.968Z,49.40
2022-09-25T20:10:47.039Z,49.30
2022-09-25T20:13:15.116Z,49.50
2022-09-25T20:15:42.006Z,49.60
2022-09-25T20:18:08.817Z,49.80
2022-09-25T20:20:35.631Z,50.50
2022-09-25T20:23:02.486Z,49.80
2022-09-25T20:25:29.284Z,49.80
2022-09-25T20:27:56.059Z,49.70
2022-09-25T20:30:24.198Z,49.70
2022-09-25T20:32:51.326Z,49.60
2022-09-25T20:35:18.489Z,50.20
2022-09-25T20:37:45.703Z,49.70
2022-09-25T20:40:12.487Z,49.40
2022-09-25T20:42:39.309Z,49.40
2022-09-25T20:45:07.344Z,49.40
2022-09-25T20:47:36.038Z,49.40
2022-09-25T20:50:03.774Z,49.80
2022-09-25T20:52:32.211Z,49.60
2022-09-25T20:54:59.084Z,49.50
2022-09-25T20:57:25.958Z,49.50
2022-09-25T20:59:52.848Z,49.50
2022-09-25T21:02:19.742Z,49.40
2022-09-25T21:04:47.986Z,49.30
2022-09-25T21:07:17.145Z,49.50
2022-09-25T21:09:44.206Z,49.20
2022-09-25T21:12:11.097Z,49.10
2022-09-25T21:14:37.794Z,49.00
2022-09-25T21:17:04.733Z,49.10
2022-09-25T21:19:31.646Z,48.90
2022-09-25T21:21:59.779Z,48.70
2022-09-25T21:24:26.580Z,48.60
2022-09-25T21:26:53.662Z,48.70
2022-09-25T21:29:20.530Z,48.80
2022-09-25T21:31:50.253Z,48.80
2022-09-25T21:34:18.232Z,48.60
2022-09-25T21:36:45.781Z,48.70
2022-09-25T21:39:14.634Z,48.50
2022-09-25T21:41:41.486Z,48.80
2022-09-25T21:44:13.464Z,48.70
2022-09-25T21:46:40.895Z,48.80
2022-09-25T21:49:08.256Z,48.90
2022-09-25T21:51:37.806Z,48.90
2022-09-25T21:54:05.255Z,49.00
2022-09-25T21:56:33.675Z,49.10
2022-09-25T21:59:12.140Z,49.00
2022-09-25T22:01:39.784Z,48.90
2022-09-25T22:04:07.812Z,48.90
2022-09-25T22:06:36.186Z,48.90
2022-09-25T22:09:05.705Z,48.90
2022-09-25T22:11:34.062Z,49.20
2022-09-25T22:14:01.661Z,49.10
2022-09-25T22:16:30.483Z,49.10
2022-09-25T22:18:59.057Z,49.00
2022-09-25T22:21:28.317Z,49.40
2022-09-25T22:23:55.432Z,49.50
2022-09-25T22:26:22.578Z,49.50
2022-09-25T22:28:50.716Z,49.40
2022-09-25T22:31:19.971Z,49.50
2022-09-25T22:33:48.343Z,49.40
2022-09-25T22:36:15.233Z,49.50
2022-09-25T22:38:41.996Z,49.30
2022-09-25T22:41:10.740Z,49.40
2022-09-25T22:43:38.120Z,49.50
2022-09-25T22:46:07.515Z,49.30
2022-09-25T22:48:35.106Z,49.30
2022-09-25T22:51:04.448Z,49.40
2022-09-25T22:53:32.932Z,49.40
2022-09-25T22:56:08.676Z,49.70
2022-09-25T22:58:35.451Z,50.00
2022-09-25T23:01:04.654Z,49.80
2022-09-25T23:03:32.863Z,49.60
2022-09-25T23:06:00.425Z,49.90
2022-09-25T23:08:27.181Z,49.70
2022-09-25T23:11:06.557Z,49.50
2022-09-25T23:13:34.994Z,49.90
2022-09-25T23:16:04.895Z,50.10
2022-09-25T23:18:33.807Z,50.20
2022-09-25T23:21:00.587Z,49.80
2022-09-25T23:23:27.388Z,50.00
2022-09-25T23:25:54.172Z,50.30
2022-09-25T23:28:20.940Z,50.10
2022-09-25T23:30:47.825Z,50.00
2022-09-25T23:33:14.635Z,49.80
2022-09-25T23:35:42.728Z,49.90
2022-09-25T23:38:09.466Z,50.00
2022-09-25T23:40:36.651Z,50.40
2022-09-25T23:43:03.383Z,50.20
2022-09-25T23:45:30.211Z,50.30
2022-09-25T23:47:57.017Z,50.10
2022-09-25T23:50:23.824Z,50.00
2022-09-25T23:52:51.976Z,50.20
2022-09-25T23:55:18.732Z,50.10
2022-09-25T23:57:45.469Z,50.30
